sensor_id;sensor_type;location;lat;lon;timestamp;P1;durP1;ratioP1;P2;durP2;ratioP2
24411;SDS011;12544;46.760;15.942;2022-11-20T00:01:20;39.30;;;20.52;;
24411;SDS011;12544;46.760;15.942;2022-11-20T00:06:13;41.67;;;20.88;;
24411;SDS011;12544;46.760;15.942;2022-11-20T00:08:40;37.80;;;19.40;;
24411;SDS011;12544;46.760;15.942;2022-11-20T00:11:20;39.90;;;20.63;;
24411;SDS011;12544;46.760;15.942;2022-11-20T00:13:48;44.00;;;22.13;;
24411;SDS011;12544;46.760;15.942;2022-11-20T00:16:23;47.55;;;22.83;;
24411;SDS011;12544;46.760;15.942;2022-11-20T00:18:50;42.75;;;21.15;;
24411;SDS011;12544;46.760;15.942;2022-11-20T00:21:18;36.55;;;20.63;;
24411;SDS011;12544;46.760;15.942;2022-11-20T00:23:44;42.50;;;20.60;;
24411;SDS011;12544;46.760;15.942;2022-11-20T00:26:16;40.45;;;20.30;;
24411;SDS011;12544;46.760;15.942;2022-11-20T00:33:39;36.55;;;19.05;;
24411;SDS011;12544;46.760;15.942;2022-11-20T00:38:57;36.22;;;19.02;;
24411;SDS011;12544;46.760;15.942;2022-11-20T00:41:23;41.88;;;21.05;;
24411;SDS011;12544;46.760;15.942;2022-11-20T00:43:51;39.25;;;20.13;;
24411;SDS011;12544;46.760;15.942;2022-11-20T00:46:18;40.95;;;19.25;;
24411;SDS011;12544;46.760;15.942;2022-11-20T00:48:49;39.15;;;20.05;;
24411;SDS011;12544;46.760;15.942;2022-11-20T00:51:16;37.47;;;19.75;;
24411;SDS011;12544;46.760;15.942;2022-11-20T00:53:43;41.17;;;19.25;;
24411;SDS011;12544;46.760;15.942;2022-11-20T00:56:10;37.60;;;20.40;;
24411;SDS011;12544;46.760;15.942;2022-11-20T01:01:39;35.40;;;19.17;;
24411;SDS011;12544;46.760;15.942;2022-11-20T01:04:05;37.05;;;19.80;;
24411;SDS011;12544;46.760;15.942;2022-11-20T01:06:34;41.40;;;20.90;;
24411;SDS011;12544;46.760;15.942;2022-11-20T01:11:42;42.50;;;20.30;;
24411;SDS011;12544;46.760;15.942;2022-11-20T01:17:00;35.03;;;17.83;;
24411;SDS011;12544;46.760;15.942;2022-11-20T01:19:26;33.42;;;17.90;;
24411;SDS011;12544;46.760;15.942;2022-11-20T01:21:52;29.88;;;16.90;;
24411;SDS011;12544;46.760;15.942;2022-11-20T01:24:21;36.05;;;18.30;;
24411;SDS011;12544;46.760;15.942;2022-11-20T01:26:47;37.28;;;19.58;;
24411;SDS011;12544;46.760;15.942;2022-11-20T01:29:22;39.13;;;19.23;;
24411;SDS011;12544;46.760;15.942;2022-11-20T01:32:01;29.48;;;17.20;;
24411;SDS011;12544;46.760;15.942;2022-11-20T01:34:42;29.20;;;16.15;;
24411;SDS011;12544;46.760;15.942;2022-11-20T01:37:07;34.05;;;17.83;;
24411;SDS011;12544;46.760;15.942;2022-11-20T01:39:34;31.88;;;17.88;;
24411;SDS011;12544;46.760;15.942;2022-11-20T01:41:59;35.25;;;17.77;;
24411;SDS011;12544;46.760;15.942;2022-11-20T01:47:38;32.70;;;16.75;;
24411;SDS011;12544;46.760;15.942;2022-11-20T01:55:24;29.73;;;17.23;;
24411;SDS011;12544;46.760;15.942;2022-11-20T01:57:53;31.45;;;16.67;;
24411;SDS011;12544;46.760;15.942;2022-11-20T02:00:20;35.38;;;19.63;;
24411;SDS011;12544;46.760;15.942;2022-11-20T02:02:48;38.97;;;19.50;;
24411;SDS011;12544;46.760;15.942;2022-11-20T02:05:38;35.72;;;19.05;;
24411;SDS011;12544;46.760;15.942;2022-11-20T02:08:23;35.28;;;18.58;;
24411;SDS011;12544;46.760;15.942;2022-11-20T02:10:53;36.50;;;18.25;;
24411;SDS011;12544;46.760;15.942;2022-11-20T02:13:18;37.90;;;17.38;;
24411;SDS011;12544;46.760;15.942;2022-11-20T02:16:02;33.35;;;18.63;;
24411;SDS011;12544;46.760;15.942;2022-11-20T02:18:29;28.42;;;16.05;;
24411;SDS011;12544;46.760;15.942;2022-11-20T02:21:30;30.30;;;17.17;;
24411;SDS011;12544;46.760;15.942;2022-11-20T02:26:31;23.83;;;15.65;;
24411;SDS011;12544;46.760;15.942;2022-11-20T02:29:09;24.55;;;15.18;;
24411;SDS011;12544;46.760;15.942;2022-11-20T02:31:38;25.33;;;15.88;;
24411;SDS011;12544;46.760;15.942;2022-11-20T02:34:06;24.95;;;14.80;;
24411;SDS011;12544;46.760;15.942;2022-11-20T02:36:32;26.70;;;15.30;;
24411;SDS011;12544;46.760;15.942;2022-11-20T02:38:59;25.45;;;15.57;;
24411;SDS011;12544;46.760;15.942;2022-11-20T02:41:32;25.60;;;13.85;;
24411;SDS011;12544;46.760;15.942;2022-11-20T02:44:02;27.48;;;14.35;;
24411;SDS011;12544;46.760;15.942;2022-11-20T02:46:28;29.60;;;14.00;;
24411;SDS011;12544;46.760;15.942;2022-11-20T02:48:54;26.77;;;14.65;;
24411;SDS011;12544;46.760;15.942;2022-11-20T02:51:20;25.98;;;15.23;;
24411;SDS011;12544;46.760;15.942;2022-11-20T02:53:50;30.90;;;18.40;;
24411;SDS011;12544;46.760;15.942;2022-11-20T02:56:16;28.88;;;15.98;;
24411;SDS011;12544;46.760;15.942;2022-11-20T02:58:41;30.02;;;16.90;;
24411;SDS011;12544;46.760;15.942;2022-11-20T03:01:07;31.08;;;17.00;;
24411;SDS011;12544;46.760;15.942;2022-11-20T03:03:49;29.85;;;16.45;;
24411;SDS011;12544;46.760;15.942;2022-11-20T03:06:15;30.42;;;17.05;;
24411;SDS011;12544;46.760;15.942;2022-11-20T03:08:42;30.13;;;17.25;;
24411;SDS011;12544;46.760;15.942;2022-11-20T03:11:07;27.63;;;16.95;;
24411;SDS011;12544;46.760;15.942;2022-11-20T03:13:34;28.48;;;15.25;;
24411;SDS011;12544;46.760;15.942;2022-11-20T03:16:13;31.23;;;17.15;;
24411;SDS011;12544;46.760;15.942;2022-11-20T03:18:44;28.90;;;16.30;;
24411;SDS011;12544;46.760;15.942;2022-11-20T03:21:10;30.13;;;16.63;;
24411;SDS011;12544;46.760;15.942;2022-11-20T03:23:37;30.85;;;17.67;;
24411;SDS011;12544;46.760;15.942;2022-11-20T03:26:23;31.70;;;18.55;;
24411;SDS011;12544;46.760;15.942;2022-11-20T03:28:54;34.88;;;18.60;;
24411;SDS011;12544;46.760;15.942;2022-11-20T03:31:22;34.25;;;18.73;;
24411;SDS011;12544;46.760;15.942;2022-11-20T03:33:51;37.17;;;19.23;;
24411;SDS011;12544;46.760;15.942;2022-11-20T03:36:18;37.67;;;19.83;;
24411;SDS011;12544;46.760;15.942;2022-11-20T03:38:45;38.22;;;19.02;;
24411;SDS011;12544;46.760;15.942;2022-11-20T03:41:17;40.55;;;19.25;;
24411;SDS011;12544;46.760;15.942;2022-11-20T03:43:55;38.72;;;20.20;;
24411;SDS011;12544;46.760;15.942;2022-11-20T03:46:25;36.78;;;19.02;;
24411;SDS011;12544;46.760;15.942;2022-11-20T03:48:51;38.80;;;18.75;;
24411;SDS011;12544;46.760;15.942;2022-11-20T03:53:47;46.40;;;22.33;;
24411;SDS011;12544;46.760;15.942;2022-11-20T03:56:16;46.00;;;22.00;;
24411;SDS011;12544;46.760;15.942;2022-11-20T03:58:43;43.00;;;21.45;;
24411;SDS011;12544;46.760;15.942;2022-11-20T04:01:10;44.60;;;21.23;;
24411;SDS011;12544;46.760;15.942;2022-11-20T04:03:39;45.88;;;22.00;;
24411;SDS011;12544;46.760;15.942;2022-11-20T04:06:06;41.35;;;21.20;;
24411;SDS011;12544;46.760;15.942;2022-11-20T04:08:35;42.53;;;20.75;;
24411;SDS011;12544;46.760;15.942;2022-11-20T04:11:20;49.03;;;23.60;;
24411;SDS011;12544;46.760;15.942;2022-11-20T04:13:51;43.45;;;21.73;;
24411;SDS011;12544;46.760;15.942;2022-11-20T04:16:19;42.28;;;21.48;;
24411;SDS011;12544;46.760;15.942;2022-11-20T04:18:46;39.75;;;20.15;;
24411;SDS011;12544;46.760;15.942;2022-11-20T04:21:12;44.17;;;21.48;;
24411;SDS011;12544;46.760;15.942;2022-11-20T04:23:45;43.22;;;20.25;;
24411;SDS011;12544;46.760;15.942;2022-11-20T04:28:37;43.33;;;20.02;;
24411;SDS011;12544;46.760;15.942;2022-11-20T04:31:10;42.22;;;20.52;;
24411;SDS011;12544;46.760;15.942;2022-11-20T04:33:38;40.63;;;20.58;;
24411;SDS011;12544;46.760;15.942;2022-11-20T04:36:07;47.28;;;22.08;;
24411;SDS011;12544;46.760;15.942;2022-11-20T04:38:33;40.65;;;20.70;;
24411;SDS011;12544;46.760;15.942;2022-11-20T04:40:59;41.25;;;19.65;;
24411;SDS011;12544;46.760;15.942;2022-11-20T04:43:29;39.78;;;20.63;;
24411;SDS011;12544;46.760;15.942;2022-11-20T04:45:56;40.25;;;20.52;;
24411;SDS011;12544;46.760;15.942;2022-11-20T04:48:23;42.60;;;19.70;;
24411;SDS011;12544;46.760;15.942;2022-11-20T04:50:50;43.30;;;20.58;;
24411;SDS011;12544;46.760;15.942;2022-11-20T04:53:16;38.28;;;19.48;;
24411;SDS011;12544;46.760;15.942;2022-11-20T04:55:46;37.55;;;18.92;;
24411;SDS011;12544;46.760;15.942;2022-11-20T04:58:12;32.20;;;18.10;;
24411;SDS011;12544;46.760;15.942;2022-11-20T05:00:39;28.63;;;16.15;;
24411;SDS011;12544;46.760;15.942;2022-11-20T05:03:04;26.25;;;15.18;;
24411;SDS011;12544;46.760;15.942;2022-11-20T05:05:30;26.77;;;14.95;;
24411;SDS011;12544;46.760;15.942;2022-11-20T05:07:56;30.13;;;15.30;;
24411;SDS011;12544;46.760;15.942;2022-11-20T05:10:23;27.35;;;15.35;;
24411;SDS011;12544;46.760;15.942;2022-11-20T05:12:49;17.77;;;11.13;;
24411;SDS011;12544;46.760;15.942;2022-11-20T05:15:15;17.20;;;10.82;;
24411;SDS011;12544;46.760;15.942;2022-11-20T05:17:41;18.25;;;10.93;;
24411;SDS011;12544;46.760;15.942;2022-11-20T05:23:19;15.38;;;10.25;;
24411;SDS011;12544;46.760;15.942;2022-11-20T05:25:44;17.08;;;10.15;;
24411;SDS011;12544;46.760;15.942;2022-11-20T05:28:10;17.17;;;10.52;;
24411;SDS011;12544;46.760;15.942;2022-11-20T05:30:35;15.52;;;10.18;;
24411;SDS011;12544;46.760;15.942;2022-11-20T05:33:01;19.40;;;11.13;;
24411;SDS011;12544;46.760;15.942;2022-11-20T05:35:27;21.80;;;11.50;;
24411;SDS011;12544;46.760;15.942;2022-11-20T05:40:39;20.83;;;11.60;;
24411;SDS011;12544;46.760;15.942;2022-11-20T05:43:05;22.00;;;13.00;;
24411;SDS011;12544;46.760;15.942;2022-11-20T05:45:30;25.08;;;13.60;;
24411;SDS011;12544;46.760;15.942;2022-11-20T05:47:59;26.95;;;14.50;;
24411;SDS011;12544;46.760;15.942;2022-11-20T05:50:26;25.95;;;14.40;;
24411;SDS011;12544;46.760;15.942;2022-11-20T05:52:52;27.75;;;14.60;;
24411;SDS011;12544;46.760;15.942;2022-11-20T05:55:18;24.38;;;15.70;;
24411;SDS011;12544;46.760;15.942;2022-11-20T05:57:43;28.30;;;14.77;;
24411;SDS011;12544;46.760;15.942;2022-11-20T06:00:09;24.63;;;15.18;;
24411;SDS011;12544;46.760;15.942;2022-11-20T06:02:41;24.58;;;13.77;;
24411;SDS011;12544;46.760;15.942;2022-11-20T06:05:07;24.60;;;14.68;;
24411;SDS011;12544;46.760;15.942;2022-11-20T06:07:33;26.45;;;14.38;;
24411;SDS011;12544;46.760;15.942;2022-11-20T06:09:58;26.17;;;14.02;;
24411;SDS011;12544;46.760;15.942;2022-11-20T06:12:24;27.38;;;14.63;;
24411;SDS011;12544;46.760;15.942;2022-11-20T06:14:49;28.67;;;16.27;;
24411;SDS011;12544;46.760;15.942;2022-11-20T06:17:15;26.67;;;14.80;;
24411;SDS011;12544;46.760;15.942;2022-11-20T06:19:41;29.50;;;16.00;;
24411;SDS011;12544;46.760;15.942;2022-11-20T06:22:06;26.58;;;16.05;;
24411;SDS011;12544;46.760;15.942;2022-11-20T06:24:32;25.15;;;15.95;;
24411;SDS011;12544;46.760;15.942;2022-11-20T06:26:57;34.25;;;16.67;;
24411;SDS011;12544;46.760;15.942;2022-11-20T06:29:23;23.20;;;15.05;;
24411;SDS011;12544;46.760;15.942;2022-11-20T06:31:48;31.08;;;16.77;;
24411;SDS011;12544;46.760;15.942;2022-11-20T06:34:14;28.35;;;16.55;;
24411;SDS011;12544;46.760;15.942;2022-11-20T06:36:39;28.67;;;15.30;;
24411;SDS011;12544;46.760;15.942;2022-11-20T06:39:13;28.55;;;16.27;;
24411;SDS011;12544;46.760;15.942;2022-11-20T06:41:39;25.98;;;14.93;;
24411;SDS011;12544;46.760;15.942;2022-11-20T06:44:05;27.17;;;15.30;;
24411;SDS011;12544;46.760;15.942;2022-11-20T06:46:30;25.45;;;14.70;;
24411;SDS011;12544;46.760;15.942;2022-11-20T06:48:56;27.75;;;15.85;;
24411;SDS011;12544;46.760;15.942;2022-11-20T06:51:23;24.55;;;15.60;;
24411;SDS011;12544;46.760;15.942;2022-11-20T06:53:48;31.83;;;16.65;;
24411;SDS011;12544;46.760;15.942;2022-11-20T06:56:14;28.80;;;16.10;;
24411;SDS011;12544;46.760;15.942;2022-11-20T06:58:40;28.60;;;16.50;;
24411;SDS011;12544;46.760;15.942;2022-11-20T07:01:06;27.17;;;14.88;;
24411;SDS011;12544;46.760;15.942;2022-11-20T07:03:34;25.08;;;14.98;;
24411;SDS011;12544;46.760;15.942;2022-11-20T07:06:00;28.02;;;14.60;;
24411;SDS011;12544;46.760;15.942;2022-11-20T07:08:26;29.30;;;15.57;;
24411;SDS011;12544;46.760;15.942;2022-11-20T07:10:52;24.58;;;14.25;;
24411;SDS011;12544;46.760;15.942;2022-11-20T07:13:21;25.42;;;14.57;;
24411;SDS011;12544;46.760;15.942;2022-11-20T07:15:47;24.92;;;15.00;;
24411;SDS011;12544;46.760;15.942;2022-11-20T07:18:13;22.83;;;14.18;;
24411;SDS011;12544;46.760;15.942;2022-11-20T07:20:38;25.98;;;15.88;;
24411;SDS011;12544;46.760;15.942;2022-11-20T07:23:04;25.33;;;15.55;;
24411;SDS011;12544;46.760;15.942;2022-11-20T07:25:29;26.60;;;15.38;;
24411;SDS011;12544;46.760;15.942;2022-11-20T07:27:58;26.77;;;15.15;;
24411;SDS011;12544;46.760;15.942;2022-11-20T07:30:25;21.27;;;14.05;;
24411;SDS011;12544;46.760;15.942;2022-11-20T07:35:21;24.98;;;14.63;;
24411;SDS011;12544;46.760;15.942;2022-11-20T07:38:06;26.55;;;15.88;;
24411;SDS011;12544;46.760;15.942;2022-11-20T07:40:32;24.45;;;14.63;;
24411;SDS011;12544;46.760;15.942;2022-11-20T07:42:58;27.27;;;15.07;;
24411;SDS011;12544;46.760;15.942;2022-11-20T07:45:24;20.23;;;13.45;;
24411;SDS011;12544;46.760;15.942;2022-11-20T07:47:55;26.60;;;15.32;;
24411;SDS011;12544;46.760;15.942;2022-11-20T07:50:21;25.38;;;15.52;;
24411;SDS011;12544;46.760;15.942;2022-11-20T07:52:47;32.60;;;18.02;;
24411;SDS011;12544;46.760;15.942;2022-11-20T07:55:12;31.73;;;18.92;;
24411;SDS011;12544;46.760;15.942;2022-11-20T07:57:38;29.83;;;16.27;;
24411;SDS011;12544;46.760;15.942;2022-11-20T08:00:11;32.75;;;18.08;;
24411;SDS011;12544;46.760;15.942;2022-11-20T08:02:41;23.90;;;14.65;;
24411;SDS011;12544;46.760;15.942;2022-11-20T08:05:07;24.08;;;14.98;;
24411;SDS011;12544;46.760;15.942;2022-11-20T08:07:37;29.50;;;16.33;;
24411;SDS011;12544;46.760;15.942;2022-11-20T08:10:07;27.02;;;16.13;;
24411;SDS011;12544;46.760;15.942;2022-11-20T08:12:34;29.00;;;16.55;;
24411;SDS011;12544;46.760;15.942;2022-11-20T08:15:25;29.02;;;16.70;;
24411;SDS011;12544;46.760;15.942;2022-11-20T08:17:50;27.90;;;15.95;;
24411;SDS011;12544;46.760;15.942;2022-11-20T08:20:16;23.48;;;14.38;;
24411;SDS011;12544;46.760;15.942;2022-11-20T08:22:41;28.30;;;16.20;;
24411;SDS011;12544;46.760;15.942;2022-11-20T08:25:07;30.48;;;16.02;;
24411;SDS011;12544;46.760;15.942;2022-11-20T08:27:39;29.67;;;14.93;;
24411;SDS011;12544;46.760;15.942;2022-11-20T08:30:04;29.17;;;16.73;;
24411;SDS011;12544;46.760;15.942;2022-11-20T08:32:30;30.10;;;15.95;;
24411;SDS011;12544;46.760;15.942;2022-11-20T08:34:56;23.50;;;15.13;;
24411;SDS011;12544;46.760;15.942;2022-11-20T08:39:50;28.95;;;15.85;;
24411;SDS011;12544;46.760;15.942;2022-11-20T08:42:18;24.02;;;14.00;;
24411;SDS011;12544;46.760;15.942;2022-11-20T08:44:44;22.73;;;14.52;;
24411;SDS011;12544;46.760;15.942;2022-11-20T08:47:09;27.25;;;14.60;;
24411;SDS011;12544;46.760;15.942;2022-11-20T08:49:51;24.55;;;14.98;;
24411;SDS011;12544;46.760;15.942;2022-11-20T08:52:17;24.27;;;14.63;;
24411;SDS011;12544;46.760;15.942;2022-11-20T08:54:42;22.65;;;14.70;;
24411;SDS011;12544;46.760;15.942;2022-11-20T08:57:08;25.83;;;14.95;;
24411;SDS011;12544;46.760;15.942;2022-11-20T08:59:34;21.65;;;15.68;;
24411;SDS011;12544;46.760;15.942;2022-11-20T09:04:33;22.45;;;13.88;;
24411;SDS011;12544;46.760;15.942;2022-11-20T09:07:00;20.58;;;13.30;;
24411;SDS011;12544;46.760;15.942;2022-11-20T09:09:25;21.70;;;13.90;;
24411;SDS011;12544;46.760;15.942;2022-11-20T09:11:51;26.30;;;16.33;;
24411;SDS011;12544;46.760;15.942;2022-11-20T09:14:16;25.63;;;14.80;;
24411;SDS011;12544;46.760;15.942;2022-11-20T09:16:44;21.60;;;13.95;;
24411;SDS011;12544;46.760;15.942;2022-11-20T09:19:10;23.05;;;14.45;;
24411;SDS011;12544;46.760;15.942;2022-11-20T09:21:36;19.08;;;13.02;;
24411;SDS011;12544;46.760;15.942;2022-11-20T09:24:02;22.10;;;14.15;;
24411;SDS011;12544;46.760;15.942;2022-11-20T09:26:29;26.90;;;15.57;;
24411;SDS011;12544;46.760;15.942;2022-11-20T09:28:54;29.00;;;17.13;;
24411;SDS011;12544;46.760;15.942;2022-11-20T09:31:23;22.20;;;13.88;;
24411;SDS011;12544;46.760;15.942;2022-11-20T09:33:52;20.55;;;14.18;;
24411;SDS011;12544;46.760;15.942;2022-11-20T09:36:18;22.27;;;14.63;;
24411;SDS011;12544;46.760;15.942;2022-11-20T09:38:44;20.63;;;14.43;;
24411;SDS011;12544;46.760;15.942;2022-11-20T09:41:59;22.33;;;13.55;;
24411;SDS011;12544;46.760;15.942;2022-11-20T09:52:07;21.17;;;13.27;;
24411;SDS011;12544;46.760;15.942;2022-11-20T09:57:19;20.95;;;13.32;;
24411;SDS011;12544;46.760;15.942;2022-11-20T09:59:50;18.17;;;12.05;;
24411;SDS011;12544;46.760;15.942;2022-11-20T10:07:36;18.50;;;13.20;;
24411;SDS011;12544;46.760;15.942;2022-11-20T10:10:18;18.00;;;11.82;;
24411;SDS011;12544;46.760;15.942;2022-11-20T10:13:05;17.98;;;12.07;;
24411;SDS011;12544;46.760;15.942;2022-11-20T10:29:29;17.85;;;11.82;;
24411;SDS011;12544;46.760;15.942;2022-11-20T10:32:06;19.90;;;13.77;;
24411;SDS011;12544;46.760;15.942;2022-11-20T10:34:46;19.23;;;13.50;;
24411;SDS011;12544;46.760;15.942;2022-11-20T10:37:23;16.02;;;11.68;;
24411;SDS011;12544;46.760;15.942;2022-11-20T10:39:54;22.83;;;15.07;;
24411;SDS011;12544;46.760;15.942;2022-11-20T10:42:43;18.55;;;13.23;;
24411;SDS011;12544;46.760;15.942;2022-11-20T10:47:48;20.20;;;13.23;;
24411;SDS011;12544;46.760;15.942;2022-11-20T10:50:18;18.17;;;11.85;;
24411;SDS011;12544;46.760;15.942;2022-11-20T10:52:56;18.67;;;13.20;;
24411;SDS011;12544;46.760;15.942;2022-11-20T10:55:40;14.60;;;10.90;;
24411;SDS011;12544;46.760;15.942;2022-11-20T11:01:18;16.30;;;11.95;;
24411;SDS011;12544;46.760;15.942;2022-11-20T11:03:56;15.25;;;11.40;;
24411;SDS011;12544;46.760;15.942;2022-11-20T11:06:34;16.92;;;11.43;;
24411;SDS011;12544;46.760;15.942;2022-11-20T11:09:09;18.90;;;11.88;;
24411;SDS011;12544;46.760;15.942;2022-11-20T11:11:40;15.32;;;11.63;;
24411;SDS011;12544;46.760;15.942;2022-11-20T11:14:06;15.95;;;11.15;;
24411;SDS011;12544;46.760;15.942;2022-11-20T11:16:35;13.68;;;10.32;;
24411;SDS011;12544;46.760;15.942;2022-11-20T11:19:26;16.70;;;11.57;;
24411;SDS011;12544;46.760;15.942;2022-11-20T11:21:53;16.48;;;12.27;;
24411;SDS011;12544;46.760;15.942;2022-11-20T11:24:21;17.77;;;12.00;;
24411;SDS011;12544;46.760;15.942;2022-11-20T11:31:49;13.57;;;10.60;;
24411;SDS011;12544;46.760;15.942;2022-11-20T11:34:15;16.40;;;11.40;;
24411;SDS011;12544;46.760;15.942;2022-11-20T11:39:43;14.65;;;11.15;;
24411;SDS011;12544;46.760;15.942;2022-11-20T11:42:12;16.15;;;11.38;;
24411;SDS011;12544;46.760;15.942;2022-11-20T11:44:45;16.25;;;11.85;;
24411;SDS011;12544;46.760;15.942;2022-11-20T11:47:47;14.15;;;11.27;;
24411;SDS011;12544;46.760;15.942;2022-11-20T11:58:46;12.93;;;10.25;;
24411;SDS011;12544;46.760;15.942;2022-11-20T12:01:32;12.82;;;9.23;;
24411;SDS011;12544;46.760;15.942;2022-11-20T12:04:16;14.85;;;10.93;;
24411;SDS011;12544;46.760;15.942;2022-11-20T12:09:51;12.55;;;9.60;;
24411;SDS011;12544;46.760;15.942;2022-11-20T12:12:24;12.23;;;9.18;;
24411;SDS011;12544;46.760;15.942;2022-11-20T12:14:54;11.05;;;9.15;;
24411;SDS011;12544;46.760;15.942;2022-11-20T12:17:21;11.82;;;9.52;;
24411;SDS011;12544;46.760;15.942;2022-11-20T12:19:47;12.93;;;9.82;;
24411;SDS011;12544;46.760;15.942;2022-11-20T12:25:30;7.80;;;6.97;;
24411;SDS011;12544;46.760;15.942;2022-11-20T12:30:33;10.05;;;7.63;;
24411;SDS011;12544;46.760;15.942;2022-11-20T12:33:38;10.32;;;7.85;;
24411;SDS011;12544;46.760;15.942;2022-11-20T12:36:07;9.50;;;7.22;;
24411;SDS011;12544;46.760;15.942;2022-11-20T12:38:51;9.60;;;7.05;;
24411;SDS011;12544;46.760;15.942;2022-11-20T12:47:50;9.50;;;7.50;;
24411;SDS011;12544;46.760;15.942;2022-11-20T12:53:22;10.95;;;8.35;;
24411;SDS011;12544;46.760;15.942;2022-11-20T12:56:25;9.88;;;7.22;;
24411;SDS011;12544;46.760;15.942;2022-11-20T13:07:53;10.10;;;8.90;;
24411;SDS011;12544;46.760;15.942;2022-11-20T13:10:55;9.10;;;8.15;;
24411;SDS011;12544;46.760;15.942;2022-11-20T13:13:42;9.40;;;8.15;;
24411;SDS011;12544;46.760;15.942;2022-11-20T13:18:57;10.57;;;9.52;;
24411;SDS011;12544;46.760;15.942;2022-11-20T13:21:38;10.63;;;9.07;;
24411;SDS011;12544;46.760;15.942;2022-11-20T13:24:06;11.23;;;10.00;;
24411;SDS011;12544;46.760;15.942;2022-11-20T13:26:32;10.15;;;9.10;;
24411;SDS011;12544;46.760;15.942;2022-11-20T13:29:00;10.05;;;8.50;;
24411;SDS011;12544;46.760;15.942;2022-11-20T13:31:35;11.13;;;8.93;;
24411;SDS011;12544;46.760;15.942;2022-11-20T13:34:03;9.52;;;8.55;;
24411;SDS011;12544;46.760;15.942;2022-11-20T13:36:34;10.60;;;8.85;;
24411;SDS011;12544;46.760;15.942;2022-11-20T13:39:01;9.85;;;8.85;;
24411;SDS011;12544;46.760;15.942;2022-11-20T13:41:32;9.35;;;8.40;;
24411;SDS011;12544;46.760;15.942;2022-11-20T13:49:53;11.83;;;9.73;;
24411;SDS011;12544;46.760;15.942;2022-11-20T13:52:15;12.38;;;10.13;;
24411;SDS011;12544;46.760;15.942;2022-11-20T14:00:43;10.97;;;9.87;;
24411;SDS011;12544;46.760;15.942;2022-11-20T14:03:20;10.45;;;9.40;;
24411;SDS011;12544;46.760;15.942;2022-11-20T14:05:52;10.30;;;9.23;;
24411;SDS011;12544;46.760;15.942;2022-11-20T14:08:26;11.20;;;10.05;;
24411;SDS011;12544;46.760;15.942;2022-11-20T14:11:02;11.10;;;10.02;;
24411;SDS011;12544;46.760;15.942;2022-11-20T14:16:26;11.38;;;10.18;;
24411;SDS011;12544;46.760;15.942;2022-11-20T14:18:54;12.82;;;11.52;;
24411;SDS011;12544;46.760;15.942;2022-11-20T14:21:21;12.68;;;11.38;;
24411;SDS011;12544;46.760;15.942;2022-11-20T14:26:53;11.85;;;10.57;;
24411;SDS011;12544;46.760;15.942;2022-11-20T14:29:21;11.95;;;10.68;;
24411;SDS011;12544;46.760;15.942;2022-11-20T14:31:52;10.95;;;9.73;;
24411;SDS011;12544;46.760;15.942;2022-11-20T14:34:23;11.75;;;10.02;;
24411;SDS011;12544;46.760;15.942;2022-11-20T14:36:53;11.48;;;9.85;;
24411;SDS011;12544;46.760;15.942;2022-11-20T14:39:25;11.75;;;10.40;;
24411;SDS011;12544;46.760;15.942;2022-11-20T14:42:02;12.52;;;9.95;;
24411;SDS011;12544;46.760;15.942;2022-11-20T14:47:26;10.60;;;9.35;;
24411;SDS011;12544;46.760;15.942;2022-11-20T14:49:54;11.95;;;10.85;;
24411;SDS011;12544;46.760;15.942;2022-11-20T14:52:22;11.57;;;10.45;;
24411;SDS011;12544;46.760;15.942;2022-11-20T14:54:50;16.33;;;13.38;;
24411;SDS011;12544;46.760;15.942;2022-11-20T14:57:20;41.30;;;24.15;;
24411;SDS011;12544;46.760;15.942;2022-11-20T14:59:51;19.08;;;13.18;;
24411;SDS011;12544;46.760;15.942;2022-11-20T15:02:28;21.85;;;14.90;;
24411;SDS011;12544;46.760;15.942;2022-11-20T15:04:58;14.45;;;11.90;;
24411;SDS011;12544;46.760;15.942;2022-11-20T15:07:38;17.27;;;13.30;;
24411;SDS011;12544;46.760;15.942;2022-11-20T15:10:11;17.17;;;14.03;;
24411;SDS011;12544;46.760;15.942;2022-11-20T15:12:51;23.10;;;16.33;;
24411;SDS011;12544;46.760;15.942;2022-11-20T15:15:28;15.70;;;13.00;;
24411;SDS011;12544;46.760;15.942;2022-11-20T15:17:57;13.05;;;10.73;;
24411;SDS011;12544;46.760;15.942;2022-11-20T15:20:25;15.32;;;12.13;;
24411;SDS011;12544;46.760;15.942;2022-11-20T15:25:48;13.30;;;9.93;;
24411;SDS011;12544;46.760;15.942;2022-11-20T15:30:51;10.73;;;9.38;;
24411;SDS011;12544;46.760;15.942;2022-11-20T15:36:06;10.75;;;9.55;;
24411;SDS011;12544;46.760;15.942;2022-11-20T15:38:31;10.52;;;9.43;;
24411;SDS011;12544;46.760;15.942;2022-11-20T15:40:57;11.38;;;10.18;;
24411;SDS011;12544;46.760;15.942;2022-11-20T15:43:23;12.10;;;10.43;;
24411;SDS011;12544;46.760;15.942;2022-11-20T15:45:49;12.73;;;10.32;;
24411;SDS011;12544;46.760;15.942;2022-11-20T15:48:27;11.75;;;10.52;;
24411;SDS011;12544;46.760;15.942;2022-11-20T15:51:01;13.05;;;11.75;;
24411;SDS011;12544;46.760;15.942;2022-11-20T15:53:37;14.55;;;11.68;;
24411;SDS011;12544;46.760;15.942;2022-11-20T15:56:04;14.68;;;11.75;;
24411;SDS011;12544;46.760;15.942;2022-11-20T15:58:30;13.90;;;12.50;;
24411;SDS011;12544;46.760;15.942;2022-11-20T16:00:55;15.20;;;13.27;;
24411;SDS011;12544;46.760;15.942;2022-11-20T16:03:21;13.70;;;12.35;;
24411;SDS011;12544;46.760;15.942;2022-11-20T16:05:47;15.65;;;13.93;;
24411;SDS011;12544;46.760;15.942;2022-11-20T16:08:13;18.55;;;14.60;;
24411;SDS011;12544;46.760;15.942;2022-11-20T16:10:39;17.98;;;14.35;;
24411;SDS011;12544;46.760;15.942;2022-11-20T16:13:11;19.77;;;16.50;;
24411;SDS011;12544;46.760;15.942;2022-11-20T16:16:01;20.85;;;15.80;;
24411;SDS011;12544;46.760;15.942;2022-11-20T16:18:34;18.95;;;15.57;;
24411;SDS011;12544;46.760;15.942;2022-11-20T16:20:59;18.02;;;15.00;;
24411;SDS011;12544;46.760;15.942;2022-11-20T16:23:25;19.40;;;15.35;;
24411;SDS011;12544;46.760;15.942;2022-11-20T16:25:51;18.30;;;14.70;;
24411;SDS011;12544;46.760;15.942;2022-11-20T16:28:17;19.73;;;14.60;;
24411;SDS011;12544;46.760;15.942;2022-11-20T16:30:43;17.15;;;14.15;;
24411;SDS011;12544;46.760;15.942;2022-11-20T16:33:10;16.67;;;13.57;;
24411;SDS011;12544;46.760;15.942;2022-11-20T16:35:37;15.38;;;13.05;;
24411;SDS011;12544;46.760;15.942;2022-11-20T16:40:34;15.05;;;13.25;;
24411;SDS011;12544;46.760;15.942;2022-11-20T16:43:07;17.20;;;13.65;;
24411;SDS011;12544;46.760;15.942;2022-11-20T16:45:34;16.40;;;13.27;;
24411;SDS011;12544;46.760;15.942;2022-11-20T16:48:04;15.90;;;13.18;;
24411;SDS011;12544;46.760;15.942;2022-11-20T16:50:30;17.65;;;14.15;;
24411;SDS011;12544;46.760;15.942;2022-11-20T16:52:55;19.85;;;14.18;;
24411;SDS011;12544;46.760;15.942;2022-11-20T16:58:10;19.45;;;14.55;;
24411;SDS011;12544;46.760;15.942;2022-11-20T17:00:37;17.83;;;14.40;;
24411;SDS011;12544;46.760;15.942;2022-11-20T17:03:04;19.13;;;14.32;;
24411;SDS011;12544;46.760;15.942;2022-11-20T17:05:30;19.52;;;14.63;;
24411;SDS011;12544;46.760;15.942;2022-11-20T17:08:08;19.08;;;14.55;;
24411;SDS011;12544;46.760;15.942;2022-11-20T17:10:33;18.60;;;14.80;;